createdAt,value
2018-05-11T00:01:00.844Z,98628
2018-05-11T00:03:28.311Z,98628
2018-05-11T00:05:55.831Z,98628
2018-05-11T00:08:27.004Z,98631
2018-05-11T00:10:55.221Z,98633
2018-05-11T00:13:27.762Z,98622
2018-05-11T00:15:56.841Z,98632
2018-05-11T00:18:29.401Z,98631
2018-05-11T00:20:58.763Z,98626
2018-05-11T00:23:27.544Z,98629
2018-05-11T00:25:54.891Z,98629
2018-05-11T00:28:22.411Z,98632
2018-05-11T00:30:49.901Z,98635
2018-05-11T00:33:17.392Z,98637
2018-05-11T00:35:47.132Z,98637
2018-05-11T00:38:14.602Z,98653
2018-05-11T00:40:43.022Z,98651
2018-05-11T00:43:10.563Z,98655
2018-05-11T00:45:38.402Z,98656
2018-05-11T00:48:06.112Z,98653
2018-05-11T00:50:35.635Z,98659
2018-05-11T00:53:03.443Z,98665
2018-05-11T00:55:49.881Z,98668
2018-05-11T00:58:20.024Z,98671
2018-05-11T01:00:49.722Z,98668
2018-05-11T01:03:18.012Z,98669
2018-05-11T01:05:45.731Z,98668
2018-05-11T01:08:13.412Z,98674
2018-05-11T01:10:41.022Z,98678
2018-05-11T01:13:09.431Z,98678
2018-05-11T01:15:37.122Z,98677
2018-05-11T01:18:04.822Z,98681
2018-05-11T01:20:32.601Z,98680
2018-05-11T01:23:01.537Z,98688
2018-05-11T01:25:29.162Z,98684
2018-05-11T01:27:57.632Z,98696
2018-05-11T01:30:26.054Z,98690
2018-05-11T01:32:54.245Z,98691
2018-05-11T01:35:21.633Z,98692
2018-05-11T01:37:49.422Z,98702
2018-05-11T01:40:16.772Z,98697
2018-05-11T01:42:44.802Z,98705
2018-05-11T01:45:12.479Z,98707
2018-05-11T01:47:40.061Z,98708
2018-05-11T01:50:08.752Z,98708
2018-05-11T01:52:36.165Z,98710
2018-05-11T01:55:04.250Z,98713
2018-05-11T01:57:32.184Z,98714
2018-05-11T01:59:59.842Z,98717
2018-05-11T02:02:27.836Z,98718
2018-05-11T02:04:55.979Z,98722
2018-05-11T02:07:23.802Z,98728
2018-05-11T02:09:51.252Z,98729
2018-05-11T02:12:19.113Z,98731
2018-05-11T02:14:46.424Z,98731
2018-05-11T02:17:14.142Z,98730
2018-05-11T02:19:41.612Z,98739
2018-05-11T02:22:08.826Z,98737
2018-05-11T02:24:36.050Z,98744
2018-05-11T02:27:03.491Z,98753
2018-05-11T02:29:31.411Z,98752
2018-05-11T02:31:58.902Z,98769
2018-05-11T02:34:26.552Z,98762
2018-05-11T02:36:54.122Z,98770
2018-05-11T02:39:21.752Z,98767
2018-05-11T02:41:50.102Z,98788
2018-05-11T02:44:17.521Z,98777
2018-05-11T02:46:44.972Z,98791
2018-05-11T02:49:12.562Z,98791
2018-05-11T02:51:40.102Z,98792
2018-05-11T02:54:08.062Z,98796
2018-05-11T02:56:35.592Z,98798
2018-05-11T02:59:03.522Z,98804
2018-05-11T03:01:30.603Z,98803
2018-05-11T03:03:58.142Z,98804
2018-05-11T03:06:25.724Z,98805
2018-05-11T03:08:55.343Z,98801
2018-05-11T03:11:23.591Z,98809
2018-05-11T03:13:51.142Z,98805
2018-05-11T03:16:18.675Z,98808
2018-05-11T03:18:46.141Z,98815
2018-05-11T03:21:15.901Z,98821
2018-05-11T03:23:44.144Z,98818
2018-05-11T03:26:12.042Z,98828
2018-05-11T03:28:41.242Z,98833
2018-05-11T03:31:11.261Z,98832
2018-05-11T03:33:41.732Z,98837
2018-05-11T03:36:09.236Z,98841
2018-05-11T03:38:37.591Z,98836
2018-05-11T03:41:05.882Z,98828
2018-05-11T03:43:36.202Z,98829
2018-05-11T03:46:03.771Z,98831
2018-05-11T03:48:31.073Z,98830
2018-05-11T03:50:59.481Z,98834
2018-05-11T03:53:27.122Z,98831
2018-05-11T03:56:00.692Z,98830
2018-05-11T03:58:30.889Z,98837
2018-05-11T04:00:58.366Z,98826
2018-05-11T04:03:43.793Z,98831
2018-05-11T04:06:28.936Z,98832
2018-05-11T04:08:56.362Z,98827
2018-05-11T04:11:27.493Z,98836
2018-05-11T04:13:55.671Z,98841
2018-05-11T04:16:23.002Z,98844
2018-05-11T04:18:50.732Z,98841
2018-05-11T04:21:20.652Z,98854
2018-05-11T04:23:54.251Z,98845
2018-05-11T04:26:22.543Z,98859
2018-05-11T04:28:50.102Z,98857
2018-05-11T04:31:17.651Z,98859
2018-05-11T04:33:48.942Z,98865
2018-05-11T04:36:18.032Z,98864
2018-05-11T04:38:46.392Z,98866
2018-05-11T04:41:13.791Z,98869
2018-05-11T04:43:41.452Z,98876
2018-05-11T04:46:08.704Z,98871
2018-05-11T04:48:36.272Z,98873
2018-05-11T04:51:03.802Z,98877
2018-05-11T04:53:31.402Z,98873
2018-05-11T04:55:58.884Z,98884
2018-05-11T04:58:28.752Z,98884
2018-05-11T05:00:56.402Z,98888
2018-05-11T05:03:24.055Z,98886
2018-05-11T05:05:52.353Z,98886
2018-05-11T05:08:20.101Z,98893
2018-05-11T05:10:47.683Z,98883
2018-05-11T05:13:15.312Z,98893
2018-05-11T05:15:44.605Z,98893
2018-05-11T05:18:18.282Z,98892
2018-05-11T05:20:46.041Z,98888
2018-05-11T05:23:13.712Z,98889
2018-05-11T05:25:41.382Z,98893
2018-05-11T05:28:08.872Z,98897
2018-05-11T05:30:39.006Z,98898
2018-05-11T05:33:10.178Z,98902
2018-05-11T05:35:37.573Z,98905
2018-05-11T05:38:05.682Z,98904
2018-05-11T05:40:33.082Z,98901
2018-05-11T05:43:01.992Z,98906
2018-05-11T05:45:30.972Z,98908
2018-05-11T05:47:59.281Z,98907
2018-05-11T05:50:28.844Z,98909
2018-05-11T05:52:58.812Z,98907
2018-05-11T05:55:28.592Z,98906
2018-05-11T05:57:57.862Z,98915
2018-05-11T06:00:25.372Z,98912
2018-05-11T06:02:52.984Z,98921
2018-05-11T06:05:22.132Z,98923
2018-05-11T06:07:49.733Z,98921
2018-05-11T06:10:17.362Z,98928
2018-05-11T06:12:45.033Z,98920
2018-05-11T06:15:14.812Z,98933
2018-05-11T06:17:42.875Z,98938
2018-05-11T06:20:10.421Z,98945
2018-05-11T06:22:38.992Z,98945
2018-05-11T06:25:06.448Z,98940
2018-05-11T06:27:33.981Z,98938
2018-05-11T06:30:02.222Z,98941
2018-05-11T06:32:31.152Z,98942
2018-05-11T06:35:00.894Z,98945
2018-05-11T06:37:31.372Z,98941
2018-05-11T06:39:58.922Z,98943
2018-05-11T06:42:27.621Z,98946
2018-05-11T06:44:56.531Z,98939
2018-05-11T06:47:27.042Z,98948
2018-05-11T06:49:54.590Z,98943
2018-05-11T06:52:22.021Z,98943
2018-05-11T06:54:49.421Z,98937
2018-05-11T06:57:16.931Z,98932
2018-05-11T06:59:44.531Z,98937
2018-05-11T07:02:13.322Z,98944
2018-05-11T07:04:40.652Z,98940
2018-05-11T07:07:08.411Z,98940
2018-05-11T07:09:35.931Z,98932
2018-05-11T07:12:03.211Z,98930
2018-05-11T07:14:32.219Z,98928
2018-05-11T07:16:59.832Z,98930
2018-05-11T07:19:29.153Z,98928
2018-05-11T07:21:56.451Z,98922
2018-05-11T07:24:24.560Z,98919
2018-05-11T07:26:52.192Z,98920
2018-05-11T07:29:19.833Z,98924
2018-05-11T07:31:47.262Z,98921
2018-05-11T07:34:17.771Z,98917
2018-05-11T07:36:48.210Z,98915
2018-05-11T07:39:15.520Z,98920
2018-05-11T07:41:44.230Z,98921
2018-05-11T07:44:11.619Z,98925
2018-05-11T07:46:39.861Z,98930
2018-05-11T07:49:09.180Z,98929
2018-05-11T07:51:36.589Z,98935
2018-05-11T07:54:05.801Z,98929
2018-05-11T07:56:33.133Z,98924
2018-05-11T07:59:01.442Z,98916
2018-05-11T08:01:28.971Z,98922
2018-05-11T08:03:57.101Z,98928
2018-05-11T08:06:25.761Z,98921
2018-05-11T08:08:54.710Z,98925
2018-05-11T08:11:23.670Z,98923
2018-05-11T08:13:52.440Z,98916
2018-05-11T08:16:21.331Z,98925
2018-05-11T08:18:48.703Z,98914
2018-05-11T08:21:16.033Z,98910
2018-05-11T08:23:43.503Z,98914
2018-05-11T08:26:11.592Z,98903
2018-05-11T08:28:39.990Z,98901
2018-05-11T08:31:08.461Z,98904
2018-05-11T08:33:37.291Z,98898
2018-05-11T08:36:05.432Z,98892
2018-05-11T08:38:32.982Z,98896
2018-05-11T08:41:00.421Z,98902
2018-05-11T08:43:28.912Z,98902
2018-05-11T08:45:56.782Z,98897
2018-05-11T08:48:24.042Z,98901
2018-05-11T08:50:51.392Z,98898
2018-05-11T08:53:19.013Z,98895
2018-05-11T08:55:46.526Z,98892
2018-05-11T08:58:15.053Z,98894
2018-05-11T09:00:44.262Z,98889
2018-05-11T09:03:12.644Z,98888
2018-05-11T09:05:40.324Z,98890
2018-05-11T09:08:07.952Z,98888
2018-05-11T09:10:37.243Z,98888
2018-05-11T09:13:05.351Z,98888
2018-05-11T09:15:34.523Z,98881
2018-05-11T09:18:02.286Z,98886
2018-05-11T09:20:30.623Z,98888
2018-05-11T09:22:58.012Z,98892
2018-05-11T09:25:27.162Z,98880
2018-05-11T09:27:54.462Z,98874
2018-05-11T09:30:21.775Z,98885
2018-05-11T09:32:49.283Z,98888
2018-05-11T09:35:16.893Z,98881
2018-05-11T09:37:43.919Z,98876
2018-05-11T09:40:11.244Z,98881
2018-05-11T09:42:38.952Z,98875
2018-05-11T09:45:06.365Z,98874
2018-05-11T09:47:34.842Z,98867
2018-05-11T09:50:02.249Z,98864
2018-05-11T09:52:30.391Z,98862
2018-05-11T09:54:58.634Z,98861
2018-05-11T09:57:26.022Z,98861
2018-05-11T09:59:53.393Z,98854
2018-05-11T10:02:20.902Z,98854
2018-05-11T10:04:47.930Z,98851
2018-05-11T10:07:15.465Z,98854
2018-05-11T10:09:43.133Z,98853
2018-05-11T10:12:10.623Z,98842
2018-05-11T10:14:38.212Z,98844
2018-05-11T10:17:05.656Z,98843
2018-05-11T10:19:33.531Z,98835
2018-05-11T10:22:01.062Z,98842
2018-05-11T10:24:28.911Z,98840
2018-05-11T10:26:56.441Z,98834
2018-05-11T10:29:23.956Z,98823
2018-05-11T10:31:51.412Z,98817
2018-05-11T10:34:19.225Z,98820
2018-05-11T10:36:46.792Z,98820
2018-05-11T10:39:14.770Z,98823
2018-05-11T10:41:42.169Z,98816
2018-05-11T10:44:09.717Z,98817
2018-05-11T10:46:37.952Z,98814
2018-05-11T10:49:05.311Z,98812
2018-05-11T10:51:32.881Z,98809
2018-05-11T10:54:01.073Z,98803
2018-05-11T10:56:28.822Z,98800
2018-05-11T10:58:56.401Z,98796
2018-05-11T11:01:24.068Z,98797
2018-05-11T11:03:51.531Z,98777
2018-05-11T11:06:19.773Z,98770
2018-05-11T11:08:47.272Z,98780
2018-05-11T11:11:14.673Z,98768
2018-05-11T11:13:43.005Z,98763
2018-05-11T11:16:11.084Z,98753
2018-05-11T11:18:38.644Z,98756
2018-05-11T11:21:06.311Z,98750
2018-05-11T11:23:33.446Z,98746
2018-05-11T11:26:01.804Z,98743
2018-05-11T11:28:29.365Z,98744
2018-05-11T11:30:56.838Z,98746
2018-05-11T11:33:24.252Z,98733
2018-05-11T11:35:52.623Z,98739
2018-05-11T11:38:20.121Z,98726
2018-05-11T11:40:50.139Z,98724
2018-05-11T11:43:18.422Z,98717
2018-05-11T11:45:46.091Z,98715
2018-05-11T11:48:14.283Z,98707
2018-05-11T11:50:41.662Z,98707
2018-05-11T11:53:09.351Z,98711
2018-05-11T11:55:36.783Z,98706
2018-05-11T11:58:04.245Z,98703
2018-05-11T12:00:31.822Z,98698
2018-05-11T12:02:59.602Z,98698
2018-05-11T12:05:27.092Z,98692
2018-05-11T12:07:54.494Z,98682
2018-05-11T12:10:22.174Z,98677
2018-05-11T12:12:50.561Z,98680
2018-05-11T12:15:18.811Z,98681
2018-05-11T12:17:46.252Z,98669
2018-05-11T12:20:13.672Z,98673
2018-05-11T12:22:41.162Z,98674
2018-05-11T12:25:08.741Z,98668
2018-05-11T12:27:36.012Z,98671
2018-05-11T12:30:03.681Z,98669
2018-05-11T12:32:31.192Z,98660
2018-05-11T12:34:59.844Z,98650
2018-05-11T12:37:27.371Z,98651
2018-05-11T12:39:54.672Z,98648
2018-05-11T12:42:21.976Z,98638
2018-05-11T12:44:49.522Z,98632
2018-05-11T12:47:16.802Z,98632
2018-05-11T12:49:44.270Z,98625
2018-05-11T12:52:13.112Z,98623
2018-05-11T12:54:40.502Z,98623
2018-05-11T12:57:07.750Z,98619
2018-05-11T12:59:35.982Z,98617
2018-05-11T13:02:03.585Z,98613
2018-05-11T13:04:32.112Z,98602
2018-05-11T13:06:59.493Z,98606
2018-05-11T13:09:27.031Z,98599
2018-05-11T13:11:54.321Z,98588
2018-05-11T13:14:22.542Z,98581
2018-05-11T13:16:50.462Z,98586
2018-05-11T13:19:17.942Z,98574
2018-05-11T13:21:45.918Z,98577
2018-05-11T13:24:14.463Z,98577
2018-05-11T13:26:42.066Z,98572
2018-05-11T13:29:09.393Z,98566
2018-05-11T13:31:38.362Z,98565
2018-05-11T13:34:05.941Z,98564
2018-05-11T13:36:33.320Z,98560
2018-05-11T13:39:00.743Z,98551
2018-05-11T13:41:28.192Z,98556
2018-05-11T13:43:57.791Z,98547
2018-05-11T13:46:26.981Z,98551
2018-05-11T13:48:56.012Z,98543
2018-05-11T13:51:27.033Z,98536
2018-05-11T13:53:56.056Z,98520
2018-05-11T13:56:23.962Z,98526
2018-05-11T13:58:52.332Z,98525
2018-05-11T14:01:20.682Z,98526
2018-05-11T14:03:48.741Z,98526
2018-05-11T14:06:17.053Z,98516
2018-05-11T14:08:45.713Z,98514
2018-05-11T14:11:13.212Z,98514
2018-05-11T14:13:40.752Z,98513
2018-05-11T14:16:09.461Z,98516
2018-05-11T14:18:36.761Z,98507
2018-05-11T14:21:04.212Z,98503
2018-05-11T14:23:31.532Z,98498
2018-05-11T14:25:59.001Z,98491
2018-05-11T14:28:27.272Z,98490
2018-05-11T14:30:54.723Z,98494
2018-05-11T14:33:22.271Z,98487
2018-05-11T14:35:51.023Z,98481
2018-05-11T14:38:18.691Z,98477
2018-05-11T14:40:47.741Z,98461
2018-05-11T14:43:15.092Z,98468
2018-05-11T14:45:42.352Z,98475
2018-05-11T14:48:11.392Z,98474
2018-05-11T14:50:39.422Z,98467
2018-05-11T14:53:07.821Z,98464
2018-05-11T14:55:35.192Z,98463
2018-05-11T14:58:02.230Z,98461
2018-05-11T15:00:29.802Z,98453
2018-05-11T15:02:58.122Z,98449
2018-05-11T15:05:25.687Z,98444
2018-05-11T15:07:55.388Z,98439
2018-05-11T15:10:22.852Z,98438
2018-05-11T15:12:50.629Z,98436
2018-05-11T15:15:19.232Z,98434
2018-05-11T15:17:46.857Z,98430
2018-05-11T15:20:14.801Z,98432
2018-05-11T15:22:42.234Z,98425
2018-05-11T15:25:10.003Z,98431
2018-05-11T15:27:38.303Z,98428
2018-05-11T15:30:05.732Z,98417
2018-05-11T15:32:33.192Z,98420
2018-05-11T15:35:00.862Z,98426
2018-05-11T15:37:28.402Z,98424
2018-05-11T15:39:55.837Z,98422
2018-05-11T15:42:23.391Z,98416
2018-05-11T15:44:51.962Z,98414
2018-05-11T15:47:20.183Z,98415
2018-05-11T15:49:47.882Z,98407
2018-05-11T15:52:15.442Z,98396
2018-05-11T15:54:43.432Z,98400
2018-05-11T15:57:12.262Z,98395
2018-05-11T15:59:40.201Z,98389
2018-05-11T16:02:07.862Z,98399
2018-05-11T16:04:35.430Z,98402
2018-05-11T16:07:03.164Z,98396
2018-05-11T16:09:30.652Z,98404
2018-05-11T16:11:58.322Z,98400
2018-05-11T16:14:26.771Z,98408
2018-05-11T16:16:55.273Z,98410
2018-05-11T16:19:22.753Z,98398
2018-05-11T16:21:49.999Z,98395
2018-05-11T16:24:17.452Z,98402
2018-05-11T16:26:45.042Z,98396
2018-05-11T16:29:13.320Z,98407
2018-05-11T16:31:40.851Z,98399
2018-05-11T16:34:08.426Z,98399
2018-05-11T16:36:35.831Z,98407
2018-05-11T16:39:06.762Z,98407
2018-05-11T16:41:34.951Z,98403
2018-05-11T16:44:02.844Z,98403
2018-05-11T16:46:30.432Z,98401
2018-05-11T16:48:58.521Z,98409
2018-05-11T16:51:26.112Z,98400
2018-05-11T16:53:53.712Z,98406
2018-05-11T16:56:21.336Z,98406
2018-05-11T16:58:48.702Z,98401
2018-05-11T17:01:16.362Z,98411
2018-05-11T17:03:43.772Z,98404
2018-05-11T17:06:11.352Z,98410
2018-05-11T17:08:38.900Z,98414
2018-05-11T17:11:06.270Z,98406
2018-05-11T17:13:33.697Z,98414
2018-05-11T17:16:01.242Z,98424
2018-05-11T17:18:28.891Z,98421
2018-05-11T17:20:56.201Z,98418
2018-05-11T17:23:24.591Z,98423
2018-05-11T17:25:52.112Z,98433
2018-05-11T17:28:19.631Z,98430
2018-05-11T17:30:47.131Z,98428
2018-05-11T17:33:14.646Z,98429
2018-05-11T17:35:42.351Z,98421
2018-05-11T17:38:11.052Z,98436
2018-05-11T17:40:39.282Z,98440
2018-05-11T17:43:06.871Z,98442
2018-05-11T17:45:34.351Z,98446
2018-05-11T17:48:01.782Z,98446
2018-05-11T17:50:29.892Z,98443
2018-05-11T17:52:57.431Z,98443
2018-05-11T17:55:25.672Z,98445
2018-05-11T17:57:53.462Z,98449
2018-05-11T18:00:21.803Z,98453
2018-05-11T18:02:49.161Z,98447
2018-05-11T18:05:16.621Z,98455
2018-05-11T18:07:44.162Z,98457
2018-05-11T18:10:11.849Z,98452
2018-05-11T18:12:39.331Z,98455
2018-05-11T18:15:06.862Z,98445
2018-05-11T18:17:34.456Z,98453
2018-05-11T18:20:02.732Z,98447
2018-05-11T18:22:30.013Z,98455
2018-05-11T18:24:57.402Z,98451
2018-05-11T18:27:25.751Z,98449
2018-05-11T18:29:53.202Z,98459
2018-05-11T18:32:20.705Z,98444
2018-05-11T18:34:49.322Z,98450
2018-05-11T18:37:17.931Z,98457
2018-05-11T18:39:45.638Z,98456
2018-05-11T18:42:13.142Z,98453
2018-05-11T18:44:40.801Z,98457
2018-05-11T18:47:08.313Z,98458
2018-05-11T18:49:35.582Z,98450
2018-05-11T18:52:03.072Z,98466
2018-05-11T18:54:31.210Z,98460
2018-05-11T18:56:58.613Z,98467
2018-05-11T18:59:26.032Z,98467
2018-05-11T19:01:53.362Z,98471
2018-05-11T19:04:21.559Z,98469
2018-05-11T19:06:49.020Z,98469
2018-05-11T19:09:16.672Z,98476
2018-05-11T19:11:44.151Z,98476
2018-05-11T19:14:11.831Z,98470
2018-05-11T19:16:39.312Z,98470
2018-05-11T19:19:07.031Z,98477
2018-05-11T19:21:34.463Z,98482
2018-05-11T19:24:02.620Z,98485
2018-05-11T19:26:30.103Z,98476
2018-05-11T19:28:57.742Z,98484
2018-05-11T19:31:25.251Z,98486
2018-05-11T19:33:55.362Z,98489
2018-05-11T19:36:23.912Z,98483
2018-05-11T19:38:52.061Z,98486
2018-05-11T19:41:21.252Z,98485
2018-05-11T19:43:48.816Z,98487
2018-05-11T19:46:16.212Z,98497
2018-05-11T19:48:43.872Z,98496
2018-05-11T19:51:12.042Z,98495
2018-05-11T19:53:39.852Z,98500
2018-05-11T19:56:07.524Z,98502
2018-05-11T19:58:35.541Z,98494
2018-05-11T20:01:03.203Z,98505
2018-05-11T20:03:30.822Z,98502
2018-05-11T20:06:01.113Z,98509
2018-05-11T20:08:28.432Z,98505
2018-05-11T20:10:56.713Z,98509
2018-05-11T20:13:24.201Z,98509
2018-05-11T20:15:55.132Z,98507
2018-05-11T20:18:22.586Z,98508
2018-05-11T20:20:50.152Z,98510
2018-05-11T20:23:17.622Z,98508
2018-05-11T20:25:45.181Z,98505
2018-05-11T20:28:12.693Z,98510
2018-05-11T20:30:41.523Z,98505
2018-05-11T20:33:08.831Z,98510
2018-05-11T20:35:36.273Z,98512
2018-05-11T20:38:03.842Z,98510
2018-05-11T20:40:33.242Z,98503
2018-05-11T20:43:00.636Z,98500
2018-05-11T20:45:28.242Z,98501
2018-05-11T20:47:56.712Z,98508
2018-05-11T20:50:24.042Z,98506
2018-05-11T20:52:51.413Z,98507
2018-05-11T20:55:19.733Z,98506
2018-05-11T20:57:47.202Z,98500
2018-05-11T21:00:14.915Z,98494
2018-05-11T21:02:42.337Z,98498
2018-05-11T21:05:09.691Z,98499
2018-05-11T21:07:36.833Z,98511
2018-05-11T21:10:05.222Z,98504
2018-05-11T21:12:33.995Z,98509
2018-05-11T21:15:01.314Z,98504
2018-05-11T21:17:28.572Z,98510
2018-05-11T21:19:55.950Z,98499
2018-05-11T21:22:23.241Z,98509
2018-05-11T21:24:50.792Z,98508
2018-05-11T21:27:18.240Z,98507
2018-05-11T21:29:45.762Z,98506
2018-05-11T21:32:13.292Z,98502
2018-05-11T21:34:40.632Z,98507
2018-05-11T21:37:08.852Z,98508
2018-05-11T21:39:36.213Z,98518
2018-05-11T21:42:03.792Z,98516
2018-05-11T21:44:31.401Z,98514
2018-05-11T21:46:59.153Z,98513
2018-05-11T21:49:26.372Z,98508
2018-05-11T21:51:53.722Z,98512
2018-05-11T21:54:22.402Z,98510
2018-05-11T21:56:49.761Z,98507
2018-05-11T21:59:17.185Z,98504
2018-05-11T22:01:44.472Z,98495
2018-05-11T22:04:12.952Z,98500
2018-05-11T22:06:40.236Z,98497
2018-05-11T22:09:09.183Z,98501
2018-05-11T22:11:38.372Z,98503
2018-05-11T22:14:05.761Z,98497
2018-05-11T22:16:33.312Z,98500
2018-05-11T22:19:01.702Z,98497
2018-05-11T22:21:29.105Z,98500
2018-05-11T22:23:57.152Z,98506
2018-05-11T22:26:25.222Z,98498
2018-05-11T22:28:52.772Z,98508
2018-05-11T22:31:21.141Z,98503
2018-05-11T22:33:49.720Z,98507
2018-05-11T22:36:17.442Z,98504
2018-05-11T22:38:44.881Z,98505
2018-05-11T22:41:12.334Z,98501
2018-05-11T22:43:39.591Z,98507
2018-05-11T22:46:07.932Z,98499
2018-05-11T22:48:35.934Z,98506
2018-05-11T22:51:03.632Z,98506
2018-05-11T22:53:31.272Z,98507
2018-05-11T22:55:58.559Z,98493
2018-05-11T22:58:25.845Z,98510
2018-05-11T23:00:53.891Z,98499
2018-05-11T23:03:24.061Z,98498
2018-05-11T23:05:52.493Z,98501
2018-05-11T23:08:20.951Z,98497
2018-05-11T23:10:50.171Z,98500
2018-05-11T23:13:17.482Z,98501
2018-05-11T23:15:48.171Z,98491
2018-05-11T23:18:17.372Z,98493
2018-05-11T23:20:46.131Z,98494
2018-05-11T23:23:14.292Z,98487
2018-05-11T23:25:42.552Z,98483
2018-05-11T23:28:10.134Z,98488
2018-05-11T23:30:37.522Z,98486
2018-05-11T23:33:04.902Z,98491
2018-05-11T23:35:32.462Z,98481
2018-05-11T23:38:01.342Z,98486
2018-05-11T23:40:28.812Z,98483
2018-05-11T23:42:56.154Z,98481
2018-05-11T23:45:23.582Z,98477
2018-05-11T23:47:50.871Z,98486
2018-05-11T23:50:18.242Z,98483
2018-05-11T23:52:46.021Z,98478
2018-05-11T23:55:13.381Z,98478
2018-05-11T23:57:41.252Z,98484
